createdAt,value
2022-09-23T00:01:32.912Z,7.15
2022-09-23T00:03:38.418Z,7.43
2022-09-23T00:05:41.953Z,7.68
2022-09-23T00:07:46.020Z,7.07
2022-09-23T00:09:49.217Z,8.02
2022-09-23T00:11:52.475Z,8.05
2022-09-23T00:14:00.998Z,7.97
2022-09-23T00:16:11.235Z,7.53
2022-09-23T00:18:20.345Z,7.50
2022-09-23T00:20:29.945Z,7.32
2022-09-23T00:22:41.903Z,7.70
2022-09-23T00:24:45.572Z,7.28
2022-09-23T00:26:55.106Z,8.35
2022-09-23T00:28:58.743Z,8.13
2022-09-23T00:31:14.842Z,8.05
2022-09-23T00:33:21.553Z,7.10
2022-09-23T00:35:24.679Z,7.05
2022-09-23T00:37:32.221Z,7.10
2022-09-23T00:39:35.740Z,6.88
2022-09-23T00:41:38.860Z,6.63
2022-09-23T00:43:57.883Z,7.18
2022-09-23T00:46:02.124Z,7.43
2022-09-23T00:48:07.179Z,6.85
2022-09-23T00:50:40.595Z,6.90
2022-09-23T00:52:48.534Z,7.32
2022-09-23T00:54:54.970Z,7.35
2022-09-23T00:56:59.527Z,6.45
2022-09-23T00:59:07.157Z,7.00
2022-09-23T01:01:14.827Z,7.25
2022-09-23T01:03:18.066Z,7.20
2022-09-23T01:05:22.722Z,7.07
2022-09-23T01:07:26.092Z,7.57
2022-09-23T01:09:32.373Z,7.00
2022-09-23T01:11:47.273Z,6.93
2022-09-23T01:14:32.753Z,6.95
2022-09-23T01:16:57.849Z,7.20
2022-09-23T01:19:37.118Z,7.30
2022-09-23T01:21:48.608Z,6.20
2022-09-23T01:24:06.628Z,6.85
2022-09-23T01:26:46.445Z,7.00
2022-09-23T01:29:28.903Z,6.68
2022-09-23T01:31:44.438Z,5.90
2022-09-23T01:34:05.517Z,6.57
2022-09-23T01:36:35.141Z,5.93
2022-09-23T01:39:06.518Z,5.60
2022-09-23T01:41:30.984Z,5.53
2022-09-23T01:43:53.552Z,6.18
2022-09-23T01:46:00.578Z,5.45
2022-09-23T01:48:20.999Z,5.65
2022-09-23T01:50:44.324Z,5.80
2022-09-23T01:52:49.110Z,5.35
2022-09-23T01:55:23.205Z,5.57
2022-09-23T01:58:11.192Z,6.30
2022-09-23T02:03:04.087Z,5.55
2022-09-23T02:05:32.721Z,5.28
2022-09-23T02:08:23.888Z,6.38
2022-09-23T02:10:37.493Z,7.03
2022-09-23T02:12:51.298Z,7.15
2022-09-23T02:15:09.425Z,7.50
2022-09-23T02:17:19.582Z,6.75
2022-09-23T02:19:34.218Z,6.70
2022-09-23T02:21:44.435Z,6.80
2022-09-23T02:23:58.673Z,7.00
2022-09-23T02:26:33.130Z,6.30
2022-09-23T02:29:18.231Z,5.80
2022-09-23T02:31:56.301Z,5.70
2022-09-23T02:34:50.237Z,5.53
2022-09-23T02:37:24.090Z,5.30
2022-09-23T02:39:51.655Z,5.57
2022-09-23T02:42:14.268Z,5.75
2022-09-23T02:44:24.431Z,4.70
2022-09-23T02:46:29.517Z,5.10
2022-09-23T02:48:53.904Z,4.88
2022-09-23T02:50:58.531Z,5.10
2022-09-23T02:53:04.645Z,3.83
2022-09-23T02:55:10.989Z,5.03
2022-09-23T02:57:16.708Z,5.53
2022-09-23T02:59:34.293Z,4.88
2022-09-23T03:02:19.158Z,4.93
2022-09-23T03:05:10.581Z,5.15
2022-09-23T03:08:12.935Z,4.55
2022-09-23T03:10:45.793Z,4.93
2022-09-23T03:13:26.111Z,4.70
2022-09-23T03:16:08.975Z,4.50
2022-09-23T03:18:26.370Z,4.65
2022-09-23T03:21:02.359Z,4.80
2022-09-23T03:23:12.574Z,4.18
2022-09-23T03:25:25.274Z,4.43
2022-09-23T03:27:32.165Z,4.82
2022-09-23T03:29:36.910Z,4.40
2022-09-23T03:31:45.092Z,4.90
2022-09-23T03:33:59.052Z,4.70
2022-09-23T03:36:10.610Z,4.43
2022-09-23T03:38:23.837Z,4.30
2022-09-23T03:40:44.256Z,4.38
2022-09-23T03:42:52.864Z,4.80
2022-09-23T03:44:58.569Z,4.40
2022-09-23T03:47:06.788Z,4.70
2022-09-23T03:49:34.515Z,4.10
2022-09-23T03:51:44.501Z,4.15
2022-09-23T03:53:48.601Z,3.97
2022-09-23T03:55:52.479Z,4.82
2022-09-23T03:58:03.469Z,4.40
2022-09-23T04:00:08.692Z,4.18
2022-09-23T04:02:15.835Z,4.45
2022-09-23T04:04:23.443Z,4.65
2022-09-23T04:06:31.696Z,3.92
2022-09-23T04:08:37.825Z,4.43
2022-09-23T04:10:43.505Z,6.63
2022-09-23T04:13:01.895Z,6.13
2022-09-23T04:15:13.716Z,6.38
2022-09-23T04:17:20.643Z,8.32
2022-09-23T04:19:24.261Z,6.30
2022-09-23T04:21:27.933Z,5.90
2022-09-23T04:23:34.361Z,6.32
2022-09-23T04:25:37.339Z,5.47
2022-09-23T04:27:39.904Z,4.75
2022-09-23T04:29:42.900Z,4.53
2022-09-23T04:31:45.580Z,4.72
2022-09-23T04:33:48.058Z,4.68
2022-09-23T04:35:56.354Z,5.05
2022-09-23T04:37:58.463Z,4.65
2022-09-23T04:42:03.396Z,3.70
2022-09-23T04:44:05.713Z,5.22
2022-09-23T04:46:11.603Z,4.55
2022-09-23T04:48:14.108Z,4.60
2022-09-23T04:52:18.766Z,4.97
2022-09-23T04:54:21.455Z,5.82
2022-09-23T04:58:29.963Z,5.63
2022-09-23T05:00:32.418Z,6.53
2022-09-23T05:04:36.713Z,6.65
2022-09-23T05:06:39.594Z,5.20
2022-09-23T05:09:01.670Z,10.05
2022-09-23T05:50:04.411Z,8.40
2022-09-23T06:11:23.836Z,10.77
2022-09-23T06:13:33.647Z,11.63
2022-09-23T06:15:42.851Z,11.70
2022-09-23T06:17:57.477Z,11.50
2022-09-23T06:20:01.808Z,11.25
2022-09-23T06:22:10.624Z,10.38
2022-09-23T06:24:30.988Z,10.82
2022-09-23T06:37:20.661Z,8.23
2022-09-23T06:39:50.646Z,8.88
2022-09-23T06:41:53.436Z,8.45
2022-09-23T06:43:56.567Z,7.97
2022-09-23T06:46:02.595Z,7.30
2022-09-23T06:48:05.759Z,8.20
2022-09-23T06:50:10.009Z,7.95
2022-09-23T06:52:13.465Z,7.65
2022-09-23T06:54:16.023Z,7.88
2022-09-23T06:56:18.639Z,7.45
2022-09-23T06:58:21.559Z,7.10
2022-09-23T07:00:25.084Z,7.28
2022-09-23T07:02:27.799Z,6.30
2022-09-23T07:04:30.928Z,6.50
2022-09-23T07:06:33.183Z,6.30
2022-09-23T07:08:36.134Z,6.78
2022-09-23T07:10:38.945Z,6.40
2022-09-23T07:12:41.544Z,6.22
2022-09-23T07:14:43.696Z,6.25
2022-09-23T07:16:49.574Z,6.25
2022-09-23T07:18:51.827Z,6.53
2022-09-23T07:20:54.693Z,6.30
2022-09-23T07:22:57.173Z,6.03
2022-09-23T07:24:59.471Z,6.15
2022-09-23T07:27:02.466Z,6.35
2022-09-23T07:29:05.414Z,7.00
2022-09-23T07:31:12.481Z,6.65
2022-09-23T07:33:27.919Z,6.20
2022-09-23T07:35:34.364Z,6.25
2022-09-23T07:37:36.660Z,5.57
2022-09-23T07:39:38.991Z,6.05
2022-09-23T07:41:42.245Z,5.25
2022-09-23T07:43:45.804Z,5.68
2022-09-23T07:45:47.940Z,5.63
2022-09-23T07:47:50.984Z,5.30
2022-09-23T07:49:53.427Z,5.70
2022-09-23T07:51:55.792Z,5.22
2022-09-23T07:53:58.474Z,5.68
2022-09-23T07:56:00.690Z,5.15
2022-09-23T07:58:03.159Z,5.85
2022-09-23T08:00:06.609Z,5.45
2022-09-23T08:02:14.071Z,5.50
2022-09-23T08:04:29.834Z,5.28
2022-09-23T08:06:33.176Z,5.53
2022-09-23T08:08:36.615Z,5.25
2022-09-23T08:10:39.018Z,5.03
2022-09-23T08:12:42.089Z,5.65
2022-09-23T08:14:45.222Z,5.78
2022-09-23T08:16:47.703Z,5.25
2022-09-23T08:18:50.715Z,5.47
2022-09-23T08:20:53.937Z,6.07
2022-09-23T08:22:56.818Z,5.65
2022-09-23T08:25:02.649Z,5.43
2022-09-23T08:27:07.510Z,5.28
2022-09-23T08:29:17.106Z,4.85
2022-09-23T08:31:24.085Z,5.80
2022-09-23T08:33:28.352Z,5.07
2022-09-23T08:35:31.087Z,4.78
2022-09-23T08:37:52.245Z,4.00
2022-09-23T08:40:10.127Z,4.47
2022-09-23T08:42:53.000Z,3.38
2022-09-23T08:45:06.895Z,3.20
2022-09-23T08:47:29.833Z,2.47
2022-09-23T08:49:55.529Z,3.63
2022-09-23T08:52:37.380Z,2.70
2022-09-23T08:54:54.580Z,2.40
2022-09-23T08:57:03.109Z,2.63
2022-09-23T08:59:25.586Z,3.30
2022-09-23T09:01:49.125Z,2.97
2022-09-23T09:03:59.327Z,3.20
2022-09-23T09:06:20.087Z,3.00
2022-09-23T09:08:32.528Z,3.50
2022-09-23T09:10:51.132Z,3.60
2022-09-23T09:13:09.574Z,3.60
2022-09-23T09:15:24.337Z,1.90
2022-09-23T09:17:39.957Z,2.35
2022-09-23T09:19:58.013Z,2.15
2022-09-23T09:22:05.216Z,2.45
2022-09-23T09:24:22.961Z,2.08
2022-09-23T09:26:33.846Z,2.45
2022-09-23T09:28:51.787Z,2.60
2022-09-23T09:31:01.745Z,2.50
2022-09-23T09:36:18.378Z,1.63
2022-09-23T09:38:33.270Z,1.40
2022-09-23T09:40:48.493Z,1.80
2022-09-23T09:42:54.567Z,1.70
2022-09-23T09:45:15.910Z,1.70
2022-09-23T09:48:09.319Z,1.75
2022-09-23T09:50:50.612Z,1.48
2022-09-23T09:53:23.639Z,1.50
2022-09-23T09:55:41.674Z,1.48
2022-09-23T09:58:06.957Z,1.70
2022-09-23T10:00:29.169Z,1.60
2022-09-23T10:02:40.497Z,1.65
2022-09-23T10:04:45.879Z,1.63
2022-09-23T10:07:16.105Z,1.92
2022-09-23T10:09:22.113Z,1.50
2022-09-23T10:11:28.871Z,1.70
2022-09-23T10:13:32.392Z,1.70
2022-09-23T10:15:46.322Z,2.00
2022-09-23T10:17:52.091Z,2.00
2022-09-23T10:20:07.509Z,1.90
2022-09-23T10:22:27.071Z,1.90
2022-09-23T10:24:32.878Z,1.83
2022-09-23T10:27:00.472Z,1.92
2022-09-23T10:29:54.395Z,2.03
2022-09-23T10:32:42.367Z,1.83
2022-09-23T10:35:03.484Z,2.00
2022-09-23T10:37:20.962Z,1.90
2022-09-23T10:39:49.098Z,1.70
2022-09-23T10:42:23.828Z,1.85
2022-09-23T10:45:16.551Z,1.80
2022-09-23T10:47:52.791Z,1.70
2022-09-23T10:50:42.227Z,1.70
2022-09-23T10:53:23.854Z,1.85
2022-09-23T10:56:11.323Z,1.98
2022-09-23T10:58:38.176Z,1.92
2022-09-23T11:01:12.921Z,2.00
2022-09-23T11:04:58.685Z,1.50
2022-09-23T11:28:36.921Z,1.63
2022-09-23T11:31:19.344Z,1.73
2022-09-23T11:34:00.425Z,1.80
2022-09-23T11:36:25.657Z,1.75
2022-09-23T11:38:50.805Z,1.50
2022-09-23T11:43:22.387Z,1.40
2022-09-23T11:45:50.076Z,1.20
2022-09-23T11:48:19.467Z,1.20
2022-09-23T11:50:46.255Z,1.20
2022-09-23T11:53:14.578Z,1.33
2022-09-23T11:55:37.038Z,1.58
2022-09-23T11:58:25.596Z,1.30
2022-09-23T12:00:42.693Z,1.17
2022-09-23T12:03:42.794Z,1.10
2022-09-23T12:06:10.772Z,1.20
2022-09-23T12:08:33.477Z,1.00
2022-09-23T12:17:26.184Z,1.10
2022-09-23T12:20:18.963Z,0.85
2022-09-23T12:23:21.134Z,0.95
2022-09-23T12:25:46.314Z,0.85
2022-09-23T12:28:15.752Z,1.17
2022-09-23T12:30:40.449Z,1.17
2022-09-23T12:33:23.341Z,1.20
2022-09-23T12:35:52.472Z,0.95
2022-09-23T12:38:07.535Z,1.00
2022-09-23T12:40:49.148Z,0.90
2022-09-23T12:42:58.006Z,0.98
2022-09-23T12:45:37.984Z,1.00
2022-09-23T12:47:45.996Z,1.17
2022-09-23T12:50:17.107Z,0.80
2022-09-23T12:52:33.707Z,0.90
2022-09-23T13:01:46.240Z,0.90
2022-09-23T13:04:15.537Z,0.70
2022-09-23T13:07:00.595Z,0.70
2022-09-23T13:10:00.154Z,0.70
2022-09-23T13:59:31.745Z,0.82
2022-09-23T14:01:35.542Z,0.80
2022-09-23T14:03:40.673Z,0.88
2022-09-23T14:05:51.771Z,0.90
2022-09-23T14:07:58.165Z,0.73
2022-09-23T14:10:01.006Z,1.00
2022-09-23T14:12:07.629Z,0.80
2022-09-23T14:14:29.557Z,0.93
2022-09-23T14:16:41.588Z,0.70
2022-09-23T14:20:10.041Z,0.73
2022-09-23T14:22:11.713Z,0.55
2022-09-23T14:24:42.559Z,0.90
2022-09-23T14:28:01.263Z,1.00
2022-09-23T14:30:53.299Z,0.70
2022-09-23T14:33:06.726Z,0.80
2022-09-23T14:35:24.204Z,0.70
2022-09-23T14:37:38.443Z,0.93
2022-09-23T14:39:41.270Z,0.93
2022-09-23T14:41:45.852Z,0.80
2022-09-23T14:44:00.711Z,0.68
2022-09-23T14:46:03.486Z,0.85
2022-09-23T14:48:17.630Z,1.00
2022-09-23T14:50:24.966Z,1.10
2022-09-23T14:52:28.000Z,0.88
2022-09-23T14:54:40.373Z,0.98
2022-09-23T14:56:44.045Z,0.80
2022-09-23T14:58:54.677Z,0.80
2022-09-23T15:01:02.938Z,0.98
2022-09-23T15:03:15.468Z,1.60
2022-09-23T15:05:24.457Z,1.60
2022-09-23T15:07:27.030Z,1.50
2022-09-23T15:09:41.663Z,1.30
2022-09-23T15:11:44.832Z,0.98
2022-09-23T15:13:52.318Z,0.80
2022-09-23T15:15:56.709Z,0.80
2022-09-23T15:18:20.646Z,1.58
2022-09-23T15:20:27.516Z,1.35
2022-09-23T15:22:30.296Z,1.90
2022-09-23T15:24:41.532Z,2.50
2022-09-23T15:26:52.665Z,2.20
2022-09-23T15:28:56.979Z,1.67
2022-09-23T15:31:00.636Z,1.70
2022-09-23T15:33:03.695Z,1.80
2022-09-23T15:35:06.838Z,1.58
2022-09-23T15:37:11.906Z,1.30
2022-09-23T15:39:15.604Z,1.42
2022-09-23T15:41:19.118Z,1.60
2022-09-23T15:43:25.279Z,1.92
2022-09-23T15:45:44.960Z,1.98
2022-09-23T15:47:49.673Z,2.20
2022-09-23T15:49:52.617Z,1.80
2022-09-23T15:52:00.455Z,1.50
2022-09-23T17:03:04.095Z,2.38
2022-09-23T17:08:54.010Z,1.85
2022-09-23T17:11:00.841Z,3.00
2022-09-23T17:13:03.797Z,3.58
2022-09-23T17:17:25.729Z,5.40
2022-09-23T17:19:28.980Z,4.97
2022-09-23T17:23:54.305Z,5.68
2022-09-23T17:26:05.245Z,5.30
2022-09-23T17:28:10.824Z,6.00
2022-09-23T17:30:13.617Z,18.48
2022-09-23T17:32:16.257Z,10.55
2022-09-23T17:34:19.856Z,11.00
2022-09-23T17:38:40.494Z,11.70
2022-09-23T17:43:12.385Z,10.55
2022-09-23T17:45:15.115Z,11.02
2022-09-23T17:47:18.324Z,10.38
2022-09-23T17:49:20.841Z,9.75
2022-09-23T17:51:24.692Z,8.55
2022-09-23T17:53:31.398Z,8.57
2022-09-23T17:55:33.648Z,8.40
2022-09-23T17:57:41.964Z,8.82
2022-09-23T17:59:45.907Z,7.57
2022-09-23T18:01:48.408Z,7.20
2022-09-23T18:03:58.347Z,7.32
2022-09-23T18:06:14.060Z,7.22
2022-09-23T18:08:16.613Z,10.25
2022-09-23T18:10:19.324Z,20.92
2022-09-23T18:12:22.364Z,19.45
2022-09-23T18:14:24.772Z,17.50
2022-09-23T18:16:37.463Z,39.28
2022-09-23T18:18:41.068Z,21.23
2022-09-23T18:20:43.987Z,12.40
2022-09-23T18:22:48.328Z,18.63
2022-09-23T18:24:53.260Z,24.98
2022-09-23T18:26:55.798Z,14.75
2022-09-23T18:28:59.817Z,14.95
2022-09-23T18:31:03.257Z,14.20
2022-09-23T18:33:05.698Z,14.48
2022-09-23T18:35:08.203Z,16.08
2022-09-23T18:37:15.680Z,11.93
2022-09-23T18:39:18.705Z,15.80
2022-09-23T18:41:21.949Z,16.08
2022-09-23T18:43:37.288Z,15.55
2022-09-23T18:45:41.950Z,14.23
2022-09-23T18:47:44.402Z,11.88
2022-09-23T18:49:47.093Z,12.15
2022-09-23T18:51:53.175Z,11.02
2022-09-23T18:54:00.778Z,11.73
2022-09-23T18:56:19.839Z,13.40
2022-09-23T18:58:22.201Z,15.85
2022-09-23T19:00:24.599Z,16.55
2022-09-23T19:02:29.836Z,18.02
2022-09-23T19:04:32.248Z,26.33
2022-09-23T19:06:39.377Z,22.48
2022-09-23T19:08:45.769Z,15.48
2022-09-23T19:11:06.111Z,13.07
2022-09-23T19:13:15.460Z,9.23
2022-09-23T19:15:47.173Z,13.23
2022-09-23T19:17:49.582Z,9.20
2022-09-23T19:20:20.744Z,6.65
2022-09-23T19:22:46.072Z,6.00
2022-09-23T19:25:13.085Z,6.40
2022-09-23T19:27:29.285Z,9.52
2022-09-23T19:29:31.954Z,14.38
2022-09-23T19:32:09.135Z,13.48
2022-09-23T19:34:26.573Z,11.98
2022-09-23T19:36:40.495Z,9.93
2022-09-23T19:38:47.442Z,8.30
2022-09-23T19:40:51.078Z,9.30
2022-09-23T19:42:53.802Z,8.38
2022-09-23T19:44:57.279Z,7.85
2022-09-23T19:47:00.126Z,9.05
2022-09-23T19:49:03.155Z,7.97
2022-09-23T19:51:08.918Z,8.98
2022-09-23T19:53:53.971Z,6.88
2022-09-23T19:56:19.494Z,7.28
2022-09-23T19:58:22.505Z,9.35
2022-09-23T20:00:24.865Z,9.40
2022-09-23T20:02:28.032Z,8.82
2022-09-23T20:04:34.298Z,10.43
2022-09-23T20:06:38.023Z,8.65
2022-09-23T20:08:42.313Z,9.57
2022-09-23T20:10:45.012Z,9.32
2022-09-23T20:12:47.807Z,10.50
2022-09-23T20:14:50.483Z,8.80
2022-09-23T20:16:52.751Z,11.18
2022-09-23T20:18:55.831Z,9.50
2022-09-23T20:20:58.783Z,9.73
2022-09-23T20:23:01.478Z,8.32
2022-09-23T20:25:05.497Z,9.07
2022-09-23T20:27:08.165Z,7.80
2022-09-23T20:29:10.978Z,8.32
2022-09-23T20:31:15.091Z,10.43
2022-09-23T20:33:20.665Z,8.00
2022-09-23T20:35:28.235Z,9.20
2022-09-23T20:37:30.713Z,8.25
2022-09-23T20:39:33.455Z,10.38
2022-09-23T20:41:37.155Z,8.13
2022-09-23T20:43:39.637Z,9.48
2022-09-23T20:45:50.524Z,8.98
2022-09-23T20:47:53.067Z,11.43
2022-09-23T20:49:55.684Z,9.57
2022-09-23T20:51:58.626Z,10.32
2022-09-23T20:54:01.481Z,9.07
2022-09-23T20:56:04.012Z,8.40
2022-09-23T20:58:08.493Z,10.27
2022-09-23T21:00:13.674Z,8.85
2022-09-23T21:02:16.242Z,8.50
2022-09-23T21:04:18.928Z,8.75
2022-09-23T21:06:21.202Z,8.35
2022-09-23T21:08:23.593Z,8.65
2022-09-23T21:10:26.488Z,10.00
2022-09-23T21:12:28.737Z,8.13
2022-09-23T21:14:31.074Z,8.32
2022-09-23T21:16:34.420Z,9.15
2022-09-23T21:18:39.174Z,8.30
2022-09-23T21:20:42.134Z,8.00
2022-09-23T21:22:45.060Z,8.38
2022-09-23T21:25:26.313Z,9.13
2022-09-23T21:27:09.807Z,6.40
2022-09-23T21:29:12.981Z,7.50
2022-09-23T21:31:22.268Z,7.70
2022-09-23T21:33:24.668Z,7.63
2022-09-23T21:35:27.308Z,8.65
2022-09-23T21:40:39.651Z,8.07
2022-09-23T21:42:41.809Z,7.70
2022-09-23T21:46:47.239Z,6.68
2022-09-23T21:48:52.488Z,7.05
2022-09-23T21:51:06.563Z,8.23
2022-09-23T21:53:09.022Z,7.82
2022-09-23T21:57:13.152Z,8.77
2022-09-23T21:59:15.986Z,9.82
2022-09-23T22:03:23.448Z,9.32
2022-09-23T22:05:26.518Z,8.57
2022-09-23T22:09:31.024Z,6.85
2022-09-23T22:11:33.700Z,7.38
2022-09-23T22:13:36.063Z,7.45
2022-09-23T22:16:04.180Z,8.15
2022-09-23T22:18:06.830Z,7.38
2022-09-23T22:22:15.776Z,7.65
2022-09-23T22:24:19.280Z,8.50
2022-09-23T22:26:21.638Z,7.28
2022-09-23T22:28:23.844Z,6.70
2022-09-23T22:30:26.576Z,8.18
2022-09-23T22:32:28.868Z,7.43
2022-09-23T22:34:48.985Z,8.00
2022-09-23T22:36:51.941Z,6.85
2022-09-23T22:41:01.727Z,6.70
2022-09-23T22:43:04.549Z,5.90
2022-09-23T22:45:07.848Z,7.65
2022-09-23T22:47:10.707Z,7.07
2022-09-23T22:49:14.262Z,7.15
2022-09-23T22:51:16.919Z,8.13
2022-09-23T22:53:19.251Z,6.97
2022-09-23T22:55:22.021Z,6.78
2022-09-23T22:57:24.369Z,7.10
2022-09-23T22:59:26.568Z,9.07
2022-09-23T23:01:30.582Z,7.38
2022-09-23T23:03:32.916Z,7.43
2022-09-23T23:05:35.278Z,7.72
2022-09-23T23:07:37.881Z,8.85
2022-09-23T23:11:43.606Z,8.93
2022-09-23T23:13:46.125Z,8.63
2022-09-23T23:15:49.078Z,7.70
2022-09-23T23:17:52.906Z,8.48
2022-09-23T23:19:55.500Z,9.00
2022-09-23T23:21:57.814Z,7.45
2022-09-23T23:24:00.681Z,7.80
2022-09-23T23:26:31.085Z,7.65
2022-09-23T23:28:33.350Z,8.15
2022-09-23T23:30:35.683Z,6.35
2022-09-23T23:32:38.872Z,8.90
2022-09-23T23:34:41.074Z,9.32
2022-09-23T23:38:49.464Z,7.60
2022-09-23T23:40:51.690Z,7.53
2022-09-23T23:42:53.951Z,7.93
2022-09-23T23:44:56.813Z,7.60
2022-09-23T23:49:01.305Z,7.43
2022-09-23T23:51:06.762Z,7.03
2022-09-23T23:53:09.032Z,6.38
2022-09-23T23:55:11.190Z,6.35
2022-09-23T23:57:13.823Z,6.70
